Station: Clare

  Atmospheric Gas Attenuation - ITU Rec 676-11   --------------- db/100km ---------------
Date Time Temp RH % AH g/m3 Dew Point Wind Direction Speed kph Gust kph Barometer mB Rainfall Since 9am 24GHz 47GHz 76GHz 122GHz 134GHz 241GHz
15 00:00 11.5 97 10.02 11 11 20 1015.6 4.8 22.8 29.1 47.1 124.0 121.5 418.9
14 23:50 11.5 97 10.02 11 13 19 1015.6 4.8 22.8 29.1 47.1 124.0 121.5 418.9
14 23:40 11.5 97 10.02 11 7 9 1015.6 4.8 22.8 29.1 47.1 124.0 121.5 418.9
14 23:30 11.6 97 10.08 11.1 11 20 1015.6 4.8 22.9 29.2 47.3 124.5 122.2 421.3
14 23:20 11.5 97 10.02 11 11 15 1015.6 4.6 22.8 29.1 47.1 124.0 121.5 418.9
14 23:10 11.6 97 10.08 11.1 9 13 1015.7 4.4 22.9 29.2 47.3 124.5 122.2 421.4
14 23:00 11.6 97 10.08 11.1 17 28 1015.5 4.4 22.9 29.2 47.3 124.5 122.2 421.3
14 22:50 11.5 97 10.02 11 17 20 1015.6 4 22.8 29.1 47.1 124.0 121.5 418.9
14 22:40 11.5 97 10.02 11 15 19 1015.6 4 22.8 29.1 47.1 124.0 121.5 418.9
14 22:30 11.5 97 10.02 11 13 19 1015.6 3.8 22.8 29.1 47.1 124.0 121.5 418.9
14 22:20 11.5 96 9.92 10.9 13 19 1015.6 3.8 22.5 28.9 46.7 122.8 120.0 413.8
14 22:10 11.5 96 9.92 10.9 19 22 1015.7 3.6 22.5 28.9 46.7 122.8 120.1 413.9
14 22:00 11.6 96 9.98 11 13 24 1015.8 3.6 22.7 29.0 46.9 123.4 120.8 416.4
14 21:50 11.7 95 9.94 10.9 11 13 1015.8 3.4 22.6 28.9 46.7 122.7 120.0 413.8
14 21:40 11.8 94 9.89 10.9 17 22 1015.9 3.4 22.5 28.8 46.4 122.0 119.2 410.8
14 21:30 11.9 94 9.96 11 13 24 1015.9 3.4 22.6 28.9 46.6 122.7 120.0 413.8
14 21:20 12 93 9.91 10.9 17 22 1015.9 3.4 22.5 28.8 46.4 121.9 119.1 410.8
14 21:10 12 93 9.91 10.9 11 13 1016 3.4 22.5 28.8 46.4 121.9 119.2 410.8
14 21:00 12.2 92 9.93 10.9 13 17 1015.9 3.4 22.5 28.7 46.3 121.8 119.1 410.7
14 20:50 12.2 92 9.93 10.9 13 15 1015.9 3.4 22.5 28.7 46.3 121.8 119.1 410.7
14 20:40 12.1 92 9.87 10.8 9 13 1015.9 3.4 22.4 28.7 46.1 121.3 118.4 408.2
14 20:30 12.3 93 10.1 11.2 9 13 1016.1 3.4 22.9 29.0 47.0 123.7 121.4 418.7
14 20:20 12.4 92 10.05 11.1 13 17 1016.2 3.4 22.8 28.9 46.8 122.9 120.5 415.7
14 20:10 12.5 92 10.12 11.2 11 13 1016 3.4 22.9 29.0 47.0 123.6 121.4 418.5
14 20:00 12.5 91 10.01 11.1 11 17 1016 3.4 22.7 28.8 46.5 122.3 119.8 413.1
14 19:50 12.6 91 10.07 11.2 9 13 1016 3.4 22.8 28.8 46.7 122.8 120.5 415.5
14 19:40 12.6 89 9.85 10.8 13 17 1016.2 3.4 22.3 28.5 45.8 120.3 117.4 404.7
14 19:30 12.7 89 9.91 10.9 11 19 1016 3.4 22.5 28.5 46.0 120.8 118.1 407.1
14 19:20 12.8 88 9.86 10.9 9 13 1015.9 3.4 22.3 28.4 45.7 120.1 117.2 404.1
14 19:10 12.9 87 9.81 10.8 11 15 1015.8 3.4 22.2 28.3 45.4 119.4 116.3 401.1
14 19:00 13 86 9.75 10.7 13 24 1015.7 3.4 22.1 28.1 45.1 118.5 115.3 397.6
14 18:50 13.1 85 9.7 10.6 13 17 1015.5 3.4 22.0 28.0 44.8 117.8 114.5 394.6
14 18:40 13.1 85 9.7 10.6 9 13 1015.4 3.4 22.0 28.0 44.8 117.8 114.5 394.6
14 18:30 13.2 84 9.65 10.6 9 15 1015.3 3.4 21.9 27.9 44.5 117.1 113.6 391.6
14 18:20 13.3 83 9.59 10.5 7 9 1015.3 3.4 21.7 27.8 44.2 116.2 112.6 388.2
14 18:10 13.3 83 9.59 10.5 9 15 1015.3 3.4 21.7 27.8 44.2 116.2 112.6 388.2
14 18:00 13.4 82 9.53 10.4 9 17 1015.2 3.4 21.6 27.6 43.9 115.4 111.6 384.8
14 17:50 13.4 83 9.65 10.6 13 15 1015 3.4 21.9 27.8 44.4 116.7 113.3 390.5
14 17:40 13.4 82 9.53 10.4 11 13 1015 3.4 21.6 27.6 43.9 115.4 111.6 384.7
14 17:30 13.5 81 9.47 10.3 11 17 1015 3.4 21.5 27.5 43.6 114.6 110.7 381.3
14 17:20 13.7 80 9.47 10.3 13 15 1015 3.4 21.5 27.4 43.5 114.3 110.4 380.4
14 17:10 13.8 80 9.53 10.4 13 17 1014.9 3.4 21.6 27.5 43.7 114.8 111.0 382.7
14 17:00 14 78 9.41 10.2 13 20 1014.7 3.4 21.3 27.2 43.1 113.1 109.1 376.0
14 16:50 13.9 80 9.59 10.5 11 13 1014.8 3.4 21.7 27.6 43.9 115.3 111.7 385.1
14 16:40 14 80 9.65 10.6 9 11 1014.8 3.4 21.8 27.6 44.1 115.8 112.4 387.4
14 16:30 14.3 80 9.83 10.9 11 20 1014.6 3.4 22.2 27.8 44.6 117.3 114.4 394.5
14 16:20 14.4 81 10.01 11.2 11 15 1014.6 3.4 22.6 28.1 45.3 119.2 116.7 402.6
14 16:10 14.5 81 10.07 11.3 7 11 1014.6 3.4 22.7 28.2 45.5 119.7 117.4 405.0
14 16:00 13.9 82 9.83 10.9 9 15 1014.6 3.4 22.2 27.9 44.9 117.9 115.0 396.5
14 15:50 13.8 81 9.65 10.6 13 19 1014.5 3.4 21.8 27.7 44.2 116.1 112.7 388.3
14 15:40 13.8 79 9.41 10.2 13 17 1014.5 3.4 21.3 27.3 43.2 113.4 109.4 376.9
14 15:30 14 77 9.29 10 17 30 1014.3 3.4 21.1 27.0 42.5 111.8 107.4 370.2
14 15:20 14.3 78 9.58 10.5 13 28 1014.3 3.4 21.7 27.4 43.6 114.5 111.0 382.5
14 15:10 14.3 78 9.58 10.5 20 26 1014.2 3.4 21.7 27.4 43.6 114.5 110.9 382.4
14 15:00 14.2 81 9.89 11 22 30 1014.2 3.4 22.3 27.9 44.9 118.1 115.3 397.8
14 14:50 13.8 84 10.01 11.1 17 20 1014.1 3.4 22.6 28.3 45.7 120.1 117.6 405.6
14 14:40 13.4 85 9.88 10.9 19 30 1014.2 3.4 22.4 28.2 45.3 119.2 116.4 401.4
14 14:30 13.3 88 10.17 11.4 19 32 1014 3.4 23.0 28.7 46.6 122.6 120.6 416.0
14 14:20 13.2 92 10.56 11.9 20 32 1013.9 3.4 23.8 29.4 48.4 127.3 126.3 435.9
14 14:10 13 91 10.32 11.6 28 35 1013.9 3.4 23.3 29.1 47.4 124.8 123.2 425.1
14 14:00 12.8 94 10.53 11.9 17 26 1014 3.4 23.8 29.5 48.5 127.6 126.5 436.7
14 13:50 12.8 95 10.64 12 15 17 1014.1 3.4 24.0 29.7 49.0 128.9 128.1 442.2
14 13:40 12.8 95 10.64 12 13 19 1014.1 3.4 24.0 29.7 49.0 128.9 128.1 442.2
14 13:30 12.7 96 10.69 12.1 17 30 1014.1 3.4 24.1 29.8 49.3 129.7 129.0 445.3
14 13:20 12.7 97 10.8 12.2 19 28 1014.2 2.6 24.4 30.0 49.7 131.0 130.6 450.9
14 13:10 12.5 97 10.67 12 13 17 1014.3 2.6 24.1 29.9 49.3 129.8 129.1 445.6
14 13:00 12.3 97 10.53 11.8 20 35 1014.3 2.6 23.8 29.7 48.8 128.5 127.4 439.6
14 12:50 12.3 97 10.53 11.8 19 24 1014.4 2.6 23.8 29.7 48.8 128.5 127.4 439.7
14 12:40 12.2 97 10.47 11.7 15 17 1014.5 2 23.7 29.6 48.6 128.0 126.7 437.3
14 12:30 12.3 97 10.53 11.8 20 35 1014.5 2 23.8 29.7 48.8 128.5 127.4 439.7
14 12:20 12.3 96 10.43 11.7 17 28 1014.7 2 23.6 29.5 48.4 127.4 126.0 434.7
14 12:10 12.2 96 10.36 11.6 19 26 1014.7 1.8 23.5 29.4 48.2 126.7 125.1 431.8
14 12:00 12.3 96 10.43 11.7 15 24 1014.7 1 23.6 29.5 48.4 127.4 126.0 434.7
14 11:50 12.3 95 10.32 11.5 17 24 1015 0.8 23.4 29.3 47.9 126.1 124.4 429.3
14 11:40 12.5 94 10.34 11.6 20 26 1015 0 23.4 29.3 47.9 126.0 124.4 429.2
14 11:30 12.5 94 10.34 11.6 17 30 1015.1 0 23.4 29.3 47.9 126.0 124.4 429.2
14 11:20 12.4 93 10.16 11.3 15 19 1015.3 0 23.0 29.0 47.2 124.1 122.0 420.9
14 11:09 12.5 92 10.12 11.2 17 22 1015.4 0 22.9 28.9 47.0 123.5 121.3 418.4
14 11:00 12.4 91 9.94 11 15 22 1015.5 0 22.5 28.7 46.2 121.6 118.9 410.0
14 10:50 12.6 89 9.85 10.8 13 17 1015.7 0 22.3 28.4 45.7 120.3 117.3 404.6
14 10:40 12.4 88 9.62 10.5 15 17 1015.8 0 21.8 28.1 44.9 118.0 114.4 394.3
14 10:30 12.4 88 9.62 10.5 13 17 1015.9 0 21.8 28.1 44.9 118.0 114.4 394.4
14 10:20 12.3 88 9.56 10.4 15 19 1015.9 0 21.7 28.1 44.7 117.5 113.7 391.9
14 10:10 12.2 88 9.5 10.3 17 20 1016 0 21.6 28.0 44.5 116.9 113.1 389.6
14 10:00 12.2 87 9.39 10.1 17 26 1016 0 21.4 27.8 44.0 115.7 111.5 384.2
14 09:50 12.2 85 9.17 9.8 15 20 1016 0 20.9 27.4 43.1 113.2 108.5 373.5
14 09:40 12.3 84 9.12 9.7 17 20 1015.8 0 20.8 27.3 42.8 112.5 107.6 370.6
14 09:30 12.3 84 9.12 9.7 15 26 1015.8 0 20.8 27.3 42.8 112.5 107.6 370.6
14 09:20 12.2 84 9.07 9.6 20 28 1015.8 0 20.7 27.2 42.7 112.1 107.1 368.6
14 09:10 12.1 83 8.9 9.3 15 19 1015.8 0 20.3 27.0 42.0 110.3 104.9 360.9
14 09:00 12.1 82 8.79 9.1 19 24 1015.7 0 20.1 26.8 41.6 109.1 103.4 355.6
14 08:50 12.1 82 8.79 9.1 17 26 1015.6 3.4 20.1 26.8 41.6 109.1 103.4 355.6
14 08:40 12.1 82 8.79 9.1 17 19 1015.5 3.4 20.1 26.8 41.5 109.1 103.4 355.6
14 08:30 12 82 8.74 9 15 22 1015.4 3.4 20.0 26.7 41.4 108.6 102.8 353.6
14 08:20 12 81 8.63 8.8 15 17 1015.4 3.4 19.7 26.6 40.9 107.4 101.3 348.4
14 08:10 12 81 8.63 8.8 20 24 1015.6 3.4 19.7 26.6 40.9 107.5 101.3 348.4
14 08:00 12 81 8.63 8.8 15 19 1015.6 3.4 19.7 26.6 40.9 107.5 101.3 348.4
14 07:50 12 81 8.63 8.8 17 22 1015.6 3.4 19.7 26.6 40.9 107.5 101.3 348.4
14 07:40 12 81 8.63 8.8 13 17 1015.6 3.4 19.7 26.6 40.9 107.5 101.3 348.4
14 07:30 12 81 8.63 8.8 15 20 1015.5 3.4 19.7 26.6 40.9 107.4 101.3 348.4

Last Refresh: 15-Jun-2024 00:10:23

Bureau of Meteorology